Cape Sorell, Australia
Current Conditions -  °F | °C
As of 5:00 PM on Sunday 26 Oct 2014 (Local Time) from YMLT Reporting Station
Scattered Clouds Scattered Clouds  
Wind Chill: 64°   Ceiling: Unl
Heat Index: 64°   Visibility: 6mi
Dew Point: 52°   Wind: 9mph
Humidity: 64%   Direction: 350°N
Pressure: 29.83"   Gusts: NA
Location:  42.2°S, 145.17°E
Report Text: YMLT 260600Z AUTO 35008KT 9999 // SCT026 SCT029 18/11 Q1010
Loading
Personal Weather Stations






























Interactive Weather Map
Tropical Storm Tracking
New forecast layout! Learn more

10-Day Weather Forecast

Advertisements
Track Severe Weather on mobile